sensor_id;sensor_type;location;lat;lon;timestamp;pressure;altitude;pressure_sealevel;temperature;humidity
10482;BME280;5288;42.334;23.876;2023-06-24T00:00:41;56096.88;;;-140.56;92.24
10482;BME280;5288;42.334;23.876;2023-06-24T00:03:08;56073.16;;;-140.56;91.77
10482;BME280;5288;42.334;23.876;2023-06-24T00:05:37;56081.06;;;-140.56;91.82
10482;BME280;5288;42.334;23.876;2023-06-24T00:08:05;56071.19;;;-140.56;91.57
10482;BME280;5288;42.334;23.876;2023-06-24T00:10:32;56104.78;;;-140.56;91.55
10482;BME280;5288;42.334;23.876;2023-06-24T00:12:59;56073.16;;;-140.56;92.13
10482;BME280;5288;42.334;23.876;2023-06-24T00:15:27;56116.63;;;-140.56;93.12
10482;BME280;5288;42.334;23.876;2023-06-24T00:17:56;56116.63;;;-140.56;92.54
10482;BME280;5288;42.334;23.876;2023-06-24T00:20:30;56063.28;;;-140.56;92.06
10482;BME280;5288;42.334;23.876;2023-06-24T00:22:58;56108.72;;;-140.56;92.49
10482;BME280;5288;42.334;23.876;2023-06-24T00:25:25;56114.66;;;-140.56;93.68
10482;BME280;5288;42.334;23.876;2023-06-24T00:27:51;56102.81;;;-140.56;92.89
10482;BME280;5288;42.334;23.876;2023-06-24T00:30:18;56104.78;;;-140.56;92.42
10482;BME280;5288;42.334;23.876;2023-06-24T00:32:45;56114.66;;;-140.56;91.74
10482;BME280;5288;42.334;23.876;2023-06-24T00:35:14;56110.72;;;-140.56;91.98
10482;BME280;5288;42.334;23.876;2023-06-24T00:37:41;56112.69;;;-140.56;91.69
10482;BME280;5288;42.334;23.876;2023-06-24T00:40:11;56108.72;;;-140.56;91.74
10482;BME280;5288;42.334;23.876;2023-06-24T00:42:40;56108.72;;;-140.56;92.44
10482;BME280;5288;42.334;23.876;2023-06-24T00:45:08;56083.03;;;-140.56;93.02
10482;BME280;5288;42.334;23.876;2023-06-24T00:47:36;56126.50;;;-140.56;93.36
10482;BME280;5288;42.334;23.876;2023-06-24T00:50:05;56063.28;;;-140.56;93.43
10482;BME280;5288;42.334;23.876;2023-06-24T00:52:33;56100.81;;;-140.56;92.69
10482;BME280;5288;42.334;23.876;2023-06-24T00:55:03;56116.63;;;-140.56;92.15
10482;BME280;5288;42.334;23.876;2023-06-24T00:57:30;56112.69;;;-140.56;92.36
10482;BME280;5288;42.334;23.876;2023-06-24T00:59:59;56134.41;;;-140.56;92.01
10482;BME280;5288;42.334;23.876;2023-06-24T01:02:26;56124.53;;;-140.56;92.04
10482;BME280;5288;42.334;23.876;2023-06-24T01:04:53;56104.78;;;-140.56;92.24
10482;BME280;5288;42.334;23.876;2023-06-24T01:07:20;56102.81;;;-140.56;92.01
10482;BME280;5288;42.334;23.876;2023-06-24T01:09:49;56053.41;;;-140.56;91.58
10482;BME280;5288;42.334;23.876;2023-06-24T01:12:16;56083.03;;;-140.56;92.15
10482;BME280;5288;42.334;23.876;2023-06-24T01:14:43;56140.34;;;-140.56;92.58
10482;BME280;5288;42.334;23.876;2023-06-24T01:17:14;56108.72;;;-140.56;92.78
10482;BME280;5288;42.334;23.876;2023-06-24T01:19:55;56106.75;;;-140.56;92.70
10482;BME280;5288;42.334;23.876;2023-06-24T01:22:44;56108.72;;;-140.56;92.15
10482;BME280;5288;42.334;23.876;2023-06-24T01:25:33;56116.63;;;-140.56;91.83
10482;BME280;5288;42.334;23.876;2023-06-24T01:28:15;56102.81;;;-140.56;91.77
10482;BME280;5288;42.334;23.876;2023-06-24T01:30:56;56104.78;;;-140.56;91.74
10482;BME280;5288;42.334;23.876;2023-06-24T01:33:38;56118.59;;;-140.56;91.37
10482;BME280;5288;42.334;23.876;2023-06-24T01:36:11;56096.88;;;-140.56;91.30
10482;BME280;5288;42.334;23.876;2023-06-24T01:38:43;56085.00;;;-140.56;91.40
10482;BME280;5288;42.334;23.876;2023-06-24T01:41:16;56075.13;;;-140.56;91.51
10482;BME280;5288;42.334;23.876;2023-06-24T01:43:45;56124.53;;;-140.56;92.11
10482;BME280;5288;42.334;23.876;2023-06-24T01:46:16;56134.41;;;-140.56;93.83
10482;BME280;5288;42.334;23.876;2023-06-24T01:48:50;56126.50;;;-140.56;94.81
10482;BME280;5288;42.334;23.876;2023-06-24T01:51:20;56128.50;;;-140.56;95.03
10482;BME280;5288;42.334;23.876;2023-06-24T01:53:51;56140.34;;;-140.56;93.75
10482;BME280;5288;42.334;23.876;2023-06-24T01:56:20;56132.44;;;-140.56;93.30
10482;BME280;5288;42.334;23.876;2023-06-24T01:58:50;56112.69;;;-140.56;93.50
10482;BME280;5288;42.334;23.876;2023-06-24T02:01:19;56106.75;;;-140.56;92.91
10482;BME280;5288;42.334;23.876;2023-06-24T02:03:50;56128.50;;;-140.56;91.85
10482;BME280;5288;42.334;23.876;2023-06-24T02:06:19;56122.56;;;-140.56;91.50
10482;BME280;5288;42.334;23.876;2023-06-24T02:08:49;56122.56;;;-140.56;91.26
10482;BME280;5288;42.334;23.876;2023-06-24T02:11:18;56128.50;;;-140.56;91.42
10482;BME280;5288;42.334;23.876;2023-06-24T02:13:46;56134.41;;;-140.56;91.28
10482;BME280;5288;42.334;23.876;2023-06-24T02:16:13;56116.63;;;-140.56;91.67
10482;BME280;5288;42.334;23.876;2023-06-24T02:18:41;56100.81;;;-140.56;92.13
10482;BME280;5288;42.334;23.876;2023-06-24T02:21:11;56100.81;;;-140.56;93.14
10482;BME280;5288;42.334;23.876;2023-06-24T02:23:39;56112.69;;;-140.56;94.18
10482;BME280;5288;42.334;23.876;2023-06-24T02:26:07;56136.41;;;-140.56;93.97
10482;BME280;5288;42.334;23.876;2023-06-24T02:28:34;56122.56;;;-140.56;93.55
10482;BME280;5288;42.334;23.876;2023-06-24T02:31:03;56114.66;;;-140.56;92.91
10482;BME280;5288;42.334;23.876;2023-06-24T02:33:31;56136.41;;;-140.56;92.89
10482;BME280;5288;42.334;23.876;2023-06-24T02:35:58;56110.72;;;-140.56;92.29
10482;BME280;5288;42.334;23.876;2023-06-24T02:38:26;56128.50;;;-140.56;92.13
10482;BME280;5288;42.334;23.876;2023-06-24T02:40:53;56114.66;;;-140.56;91.90
10482;BME280;5288;42.334;23.876;2023-06-24T02:43:22;56156.16;;;-140.56;91.69
10482;BME280;5288;42.334;23.876;2023-06-24T02:45:49;56160.13;;;-140.56;91.59
10482;BME280;5288;42.334;23.876;2023-06-24T02:48:18;56128.50;;;-140.56;91.74
10482;BME280;5288;42.334;23.876;2023-06-24T02:50:47;56134.41;;;-140.56;92.64
10482;BME280;5288;42.334;23.876;2023-06-24T02:53:14;56134.41;;;-140.56;93.01
10482;BME280;5288;42.334;23.876;2023-06-24T02:55:44;56102.81;;;-140.56;92.76
10482;BME280;5288;42.334;23.876;2023-06-24T02:58:12;56144.31;;;-140.56;93.62
10482;BME280;5288;42.334;23.876;2023-06-24T03:00:40;56128.50;;;-140.56;93.46
10482;BME280;5288;42.334;23.876;2023-06-24T03:03:07;56142.31;;;-140.56;93.81
10482;BME280;5288;42.334;23.876;2023-06-24T03:05:35;56132.44;;;-140.56;94.63
10482;BME280;5288;42.334;23.876;2023-06-24T03:08:03;56138.38;;;-140.56;93.83
10482;BME280;5288;42.334;23.876;2023-06-24T03:10:30;56138.38;;;-140.56;93.08
10482;BME280;5288;42.334;23.876;2023-06-24T03:12:58;56179.88;;;-140.56;93.29
10482;BME280;5288;42.334;23.876;2023-06-24T03:15:25;56160.13;;;-140.56;92.95
10482;BME280;5288;42.334;23.876;2023-06-24T03:17:54;56124.53;;;-140.56;92.70
10482;BME280;5288;42.334;23.876;2023-06-24T03:20:21;56134.41;;;-140.56;92.51
10482;BME280;5288;42.334;23.876;2023-06-24T03:22:49;56120.59;;;-140.56;92.54
10482;BME280;5288;42.334;23.876;2023-06-24T03:25:17;56134.41;;;-140.56;92.74
10482;BME280;5288;42.334;23.876;2023-06-24T03:27:44;56116.63;;;-140.56;93.16
10482;BME280;5288;42.334;23.876;2023-06-24T03:30:13;56171.97;;;-140.56;92.98
10482;BME280;5288;42.334;23.876;2023-06-24T03:32:40;56130.47;;;-140.56;93.50
10482;BME280;5288;42.334;23.876;2023-06-24T03:35:12;56132.44;;;-140.56;93.49
10482;BME280;5288;42.334;23.876;2023-06-24T03:37:40;56132.44;;;-140.56;93.59
10482;BME280;5288;42.334;23.876;2023-06-24T03:40:08;56148.25;;;-140.56;94.03
10482;BME280;5288;42.334;23.876;2023-06-24T03:42:35;56138.38;;;-140.56;94.88
10482;BME280;5288;42.334;23.876;2023-06-24T03:45:02;56134.41;;;-140.56;94.74
10482;BME280;5288;42.334;23.876;2023-06-24T03:47:31;56158.13;;;-140.56;96.12
10482;BME280;5288;42.334;23.876;2023-06-24T03:49:58;56130.47;;;-140.56;97.29
10482;BME280;5288;42.334;23.876;2023-06-24T03:52:25;56152.22;;;-140.56;98.38
10482;BME280;5288;42.334;23.876;2023-06-24T03:54:52;56122.56;;;-140.56;99.53
10482;BME280;5288;42.334;23.876;2023-06-24T03:57:19;56134.41;;;-140.56;99.77
10482;BME280;5288;42.334;23.876;2023-06-24T03:59:47;56168.00;;;-140.56;99.44
10482;BME280;5288;42.334;23.876;2023-06-24T04:02:15;56144.31;;;-140.56;98.62
10482;BME280;5288;42.334;23.876;2023-06-24T04:04:44;56146.28;;;-140.56;100.00
10482;BME280;5288;42.334;23.876;2023-06-24T04:07:11;56134.41;;;-140.56;100.00
10482;BME280;5288;42.334;23.876;2023-06-24T04:09:39;56108.72;;;-140.56;100.00
10482;BME280;5288;42.334;23.876;2023-06-24T04:12:06;56138.38;;;-140.56;100.00
10482;BME280;5288;42.334;23.876;2023-06-24T04:14:33;56116.63;;;-140.56;100.00
10482;BME280;5288;42.334;23.876;2023-06-24T04:17:00;56126.50;;;-140.56;100.00
10482;BME280;5288;42.334;23.876;2023-06-24T04:19:28;56144.31;;;-140.56;100.00
10482;BME280;5288;42.334;23.876;2023-06-24T04:21:56;56098.84;;;-140.56;100.00
10482;BME280;5288;42.334;23.876;2023-06-24T04:24:23;56120.59;;;-140.56;100.00
10482;BME280;5288;42.334;23.876;2023-06-24T04:26:50;56134.41;;;-140.56;100.00
10482;BME280;5288;42.334;23.876;2023-06-24T04:29:17;56087.00;;;-140.56;100.00
10482;BME280;5288;42.334;23.876;2023-06-24T04:31:44;56114.66;;;-140.56;100.00
10482;BME280;5288;42.334;23.876;2023-06-24T04:34:11;56102.81;;;-140.56;100.00
10482;BME280;5288;42.334;23.876;2023-06-24T04:36:38;56112.69;;;-140.56;100.00
10482;BME280;5288;42.334;23.876;2023-06-24T04:39:07;56096.88;;;-140.56;100.00
10482;BME280;5288;42.334;23.876;2023-06-24T04:41:34;56087.00;;;-140.56;100.00
10482;BME280;5288;42.334;23.876;2023-06-24T04:44:01;56134.41;;;-140.56;98.93
10482;BME280;5288;42.334;23.876;2023-06-24T04:46:28;56124.53;;;-140.56;98.39
10482;BME280;5288;42.334;23.876;2023-06-24T04:48:55;56098.84;;;-140.56;97.11
10482;BME280;5288;42.334;23.876;2023-06-24T04:51:22;56132.44;;;-140.56;97.30
10482;BME280;5288;42.334;23.876;2023-06-24T04:53:49;56114.66;;;-140.56;97.85
10482;BME280;5288;42.334;23.876;2023-06-24T04:56:26;56098.84;;;-140.56;98.39
10482;BME280;5288;42.334;23.876;2023-06-24T04:59:00;56132.44;;;-140.56;98.46
10482;BME280;5288;42.334;23.876;2023-06-24T05:01:33;56085.00;;;-140.56;97.69
10482;BME280;5288;42.334;23.876;2023-06-24T05:04:06;56126.50;;;-140.56;96.80
10482;BME280;5288;42.334;23.876;2023-06-24T05:06:33;56110.72;;;-140.56;97.46
10482;BME280;5288;42.334;23.876;2023-06-24T05:09:00;56116.63;;;-140.56;97.74
10482;BME280;5288;42.334;23.876;2023-06-24T05:11:29;56106.75;;;-140.56;97.61
10482;BME280;5288;42.334;23.876;2023-06-24T05:13:56;56098.84;;;-140.56;96.94
10482;BME280;5288;42.334;23.876;2023-06-24T05:16:23;56065.25;;;-140.56;96.93
10482;BME280;5288;42.334;23.876;2023-06-24T05:18:51;56098.84;;;-140.56;95.89
10482;BME280;5288;42.334;23.876;2023-06-24T05:21:18;56079.09;;;-140.56;94.86
10482;BME280;5288;42.334;23.876;2023-06-24T05:23:45;56092.91;;;-140.56;93.65
10482;BME280;5288;42.334;23.876;2023-06-24T05:26:12;56049.44;;;-140.56;91.86
10482;BME280;5288;42.334;23.876;2023-06-24T05:28:40;56061.31;;;-140.56;90.35
10482;BME280;5288;42.334;23.876;2023-06-24T05:31:07;56049.44;;;-140.56;89.25
10482;BME280;5288;42.334;23.876;2023-06-24T05:33:34;56053.41;;;-140.56;89.03
10482;BME280;5288;42.334;23.876;2023-06-24T05:36:01;56065.25;;;-140.56;86.69
10482;BME280;5288;42.334;23.876;2023-06-24T05:38:28;56057.34;;;-140.56;86.60
10482;BME280;5288;42.334;23.876;2023-06-24T05:40:55;56039.56;;;-140.56;84.30
10482;BME280;5288;42.334;23.876;2023-06-24T05:43:22;56065.25;;;-140.56;84.47
10482;BME280;5288;42.334;23.876;2023-06-24T05:45:51;56043.50;;;-140.56;82.68
10482;BME280;5288;42.334;23.876;2023-06-24T05:48:18;56039.56;;;-140.56;83.30
10482;BME280;5288;42.334;23.876;2023-06-24T05:50:45;56033.63;;;-140.56;84.00
10482;BME280;5288;42.334;23.876;2023-06-24T05:53:12;56025.72;;;-140.56;82.49
10482;BME280;5288;42.334;23.876;2023-06-24T05:55:39;55998.06;;;-140.56;80.70
10482;BME280;5288;42.334;23.876;2023-06-24T05:58:06;56027.72;;;-140.56;80.19
10482;BME280;5288;42.334;23.876;2023-06-24T06:00:33;56013.88;;;-140.56;81.66
10482;BME280;5288;42.334;23.876;2023-06-24T06:03:01;55998.06;;;-140.56;80.39
10482;BME280;5288;42.334;23.876;2023-06-24T06:05:28;55998.06;;;-140.56;78.50
10482;BME280;5288;42.334;23.876;2023-06-24T06:07:55;55986.22;;;-140.56;78.80
10482;BME280;5288;42.334;23.876;2023-06-24T06:10:22;55984.22;;;-140.56;76.24
10482;BME280;5288;42.334;23.876;2023-06-24T06:12:49;55982.25;;;-140.56;74.63
10482;BME280;5288;42.334;23.876;2023-06-24T06:15:18;56002.00;;;-140.56;76.14
10482;BME280;5288;42.334;23.876;2023-06-24T06:17:45;55986.22;;;-140.56;76.90
10482;BME280;5288;42.334;23.876;2023-06-24T06:20:14;55994.13;;;-140.56;78.11
10482;BME280;5288;42.334;23.876;2023-06-24T06:22:41;56005.97;;;-140.56;79.01
10482;BME280;5288;42.334;23.876;2023-06-24T06:25:08;56011.91;;;-140.56;78.60
10482;BME280;5288;42.334;23.876;2023-06-24T06:27:35;56009.91;;;-140.56;77.97
10482;BME280;5288;42.334;23.876;2023-06-24T06:30:04;55986.22;;;-140.56;78.24
10482;BME280;5288;42.334;23.876;2023-06-24T06:32:31;56005.97;;;-140.56;76.73
10482;BME280;5288;42.334;23.876;2023-06-24T06:34:58;55992.13;;;-140.56;77.42
10482;BME280;5288;42.334;23.876;2023-06-24T06:37:27;55978.31;;;-140.56;77.15
10482;BME280;5288;42.334;23.876;2023-06-24T06:39:53;55968.41;;;-140.56;76.35
10482;BME280;5288;42.334;23.876;2023-06-24T06:42:20;55980.28;;;-140.56;75.94
10482;BME280;5288;42.334;23.876;2023-06-24T06:44:47;55966.44;;;-140.56;75.92
10482;BME280;5288;42.334;23.876;2023-06-24T06:47:15;55930.88;;;-140.56;74.46
10482;BME280;5288;42.334;23.876;2023-06-24T06:49:42;55940.75;;;-140.56;73.54
10482;BME280;5288;42.334;23.876;2023-06-24T06:52:09;55976.31;;;-140.56;72.65
10482;BME280;5288;42.334;23.876;2023-06-24T06:54:38;55922.97;;;-140.56;73.12
10482;BME280;5288;42.334;23.876;2023-06-24T06:57:05;55962.50;;;-140.56;73.65
10482;BME280;5288;42.334;23.876;2023-06-24T06:59:33;55946.69;;;-140.56;72.98
10482;BME280;5288;42.334;23.876;2023-06-24T07:02:00;55950.63;;;-140.56;71.53
10482;BME280;5288;42.334;23.876;2023-06-24T07:04:27;55944.72;;;-140.56;71.42
10482;BME280;5288;42.334;23.876;2023-06-24T07:06:54;55962.50;;;-140.56;70.53
10482;BME280;5288;42.334;23.876;2023-06-24T07:09:21;55921.00;;;-140.56;69.52
10482;BME280;5288;42.334;23.876;2023-06-24T07:11:49;55922.97;;;-140.56;70.44
10482;BME280;5288;42.334;23.876;2023-06-24T07:14:17;55911.13;;;-140.56;68.04
10482;BME280;5288;42.334;23.876;2023-06-24T07:16:44;55938.78;;;-140.56;68.96
10482;BME280;5288;42.334;23.876;2023-06-24T07:19:11;55934.81;;;-140.56;69.26
10482;BME280;5288;42.334;23.876;2023-06-24T07:21:38;55928.91;;;-140.56;67.69
10482;BME280;5288;42.334;23.876;2023-06-24T07:24:05;55893.34;;;-140.56;68.03
10482;BME280;5288;42.334;23.876;2023-06-24T07:26:32;55891.34;;;-140.56;67.72
10482;BME280;5288;42.334;23.876;2023-06-24T07:29:01;55903.22;;;-140.56;66.43
10482;BME280;5288;42.334;23.876;2023-06-24T07:31:28;55934.81;;;-140.56;65.58
10482;BME280;5288;42.334;23.876;2023-06-24T07:33:55;55899.25;;;-140.56;64.84
10482;BME280;5288;42.334;23.876;2023-06-24T07:36:22;55887.41;;;-140.56;65.51
10482;BME280;5288;42.334;23.876;2023-06-24T07:38:49;55921.00;;;-140.56;66.19
10482;BME280;5288;42.334;23.876;2023-06-24T07:41:16;55897.28;;;-140.56;65.20
10482;BME280;5288;42.334;23.876;2023-06-24T07:43:43;55877.53;;;-140.56;64.89
10482;BME280;5288;42.334;23.876;2023-06-24T07:46:11;55930.88;;;-140.56;64.71
10482;BME280;5288;42.334;23.876;2023-06-24T07:48:38;55873.56;;;-140.56;64.23
10482;BME280;5288;42.334;23.876;2023-06-24T07:51:05;55881.47;;;-140.56;64.87
10482;BME280;5288;42.334;23.876;2023-06-24T07:53:32;55895.31;;;-140.56;65.67
10482;BME280;5288;42.334;23.876;2023-06-24T07:55:59;55871.59;;;-140.56;64.15
10482;BME280;5288;42.334;23.876;2023-06-24T07:58:26;55895.31;;;-140.56;62.97
10482;BME280;5288;42.334;23.876;2023-06-24T08:00:53;55879.50;;;-140.56;62.35
10482;BME280;5288;42.334;23.876;2023-06-24T08:03:22;55879.50;;;-140.56;62.70
10482;BME280;5288;42.334;23.876;2023-06-24T08:05:49;55887.41;;;-140.56;63.49
10482;BME280;5288;42.334;23.876;2023-06-24T08:08:16;55859.75;;;-140.56;61.11
10482;BME280;5288;42.334;23.876;2023-06-24T08:10:45;55855.78;;;-140.56;60.12
10482;BME280;5288;42.334;23.876;2023-06-24T08:13:12;55853.81;;;-140.56;59.51
10482;BME280;5288;42.334;23.876;2023-06-24T08:15:39;55895.31;;;-140.56;60.02
10482;BME280;5288;42.334;23.876;2023-06-24T08:18:06;55855.78;;;-140.56;59.62
10482;BME280;5288;42.334;23.876;2023-06-24T08:20:34;55871.59;;;-140.56;60.10
10482;BME280;5288;42.334;23.876;2023-06-24T08:23:01;55863.69;;;-140.56;57.70
10482;BME280;5288;42.334;23.876;2023-06-24T08:25:28;55828.13;;;-140.56;57.42
10482;BME280;5288;42.334;23.876;2023-06-24T08:27:56;55838.00;;;-140.56;59.02
10482;BME280;5288;42.334;23.876;2023-06-24T08:30:23;55826.16;;;-140.56;58.41
10482;BME280;5288;42.334;23.876;2023-06-24T08:32:50;55824.16;;;-140.56;58.31
10482;BME280;5288;42.334;23.876;2023-06-24T08:35:17;55808.34;;;-140.56;56.66
10482;BME280;5288;42.334;23.876;2023-06-24T08:37:45;55851.84;;;-140.56;55.10
10482;BME280;5288;42.334;23.876;2023-06-24T08:40:12;55826.16;;;-140.56;54.84
10482;BME280;5288;42.334;23.876;2023-06-24T08:42:39;55816.25;;;-140.56;55.89
10482;BME280;5288;42.334;23.876;2023-06-24T08:45:07;55826.16;;;-140.56;56.63
10482;BME280;5288;42.334;23.876;2023-06-24T08:47:34;55836.03;;;-140.56;56.83
10482;BME280;5288;42.334;23.876;2023-06-24T08:50:04;55820.22;;;-140.56;55.90
10482;BME280;5288;42.334;23.876;2023-06-24T08:52:33;55820.22;;;-140.56;54.39
10482;BME280;5288;42.334;23.876;2023-06-24T08:55:04;55784.66;;;-140.56;55.84
10482;BME280;5288;42.334;23.876;2023-06-24T08:57:33;55784.66;;;-140.56;51.80
10482;BME280;5288;42.334;23.876;2023-06-24T09:00:00;55808.34;;;-140.56;53.35
10482;BME280;5288;42.334;23.876;2023-06-24T09:02:27;55804.41;;;-140.56;54.45
10482;BME280;5288;42.334;23.876;2023-06-24T09:04:54;55802.44;;;-140.56;52.70
10482;BME280;5288;42.334;23.876;2023-06-24T09:07:28;55814.28;;;-140.56;51.96
10482;BME280;5288;42.334;23.876;2023-06-24T09:09:55;55796.50;;;-140.56;53.81
10482;BME280;5288;42.334;23.876;2023-06-24T09:12:24;55792.56;;;-140.56;53.31
10482;BME280;5288;42.334;23.876;2023-06-24T09:14:52;55776.75;;;-140.56;50.92
10482;BME280;5288;42.334;23.876;2023-06-24T09:17:19;55786.63;;;-140.56;51.82
10482;BME280;5288;42.334;23.876;2023-06-24T09:19:48;55778.72;;;-140.56;51.65
10482;BME280;5288;42.334;23.876;2023-06-24T09:22:15;55770.81;;;-140.56;50.62
10482;BME280;5288;42.334;23.876;2023-06-24T09:24:43;55776.75;;;-140.56;51.14
10482;BME280;5288;42.334;23.876;2023-06-24T09:27:12;55768.84;;;-140.56;51.25
10482;BME280;5288;42.334;23.876;2023-06-24T09:29:42;55806.38;;;-140.56;50.66
10482;BME280;5288;42.334;23.876;2023-06-24T09:32:10;55782.66;;;-140.56;50.66
10482;BME280;5288;42.334;23.876;2023-06-24T09:34:37;55749.06;;;-140.56;51.59
10482;BME280;5288;42.334;23.876;2023-06-24T09:37:05;55780.69;;;-140.56;50.81
10482;BME280;5288;42.334;23.876;2023-06-24T09:39:36;55756.97;;;-140.56;51.58
10482;BME280;5288;42.334;23.876;2023-06-24T09:42:04;55743.16;;;-140.56;49.66
10482;BME280;5288;42.334;23.876;2023-06-24T09:44:33;55727.34;;;-140.56;46.12
10482;BME280;5288;42.334;23.876;2023-06-24T09:47:01;55717.47;;;-140.56;46.37
10482;BME280;5288;42.334;23.876;2023-06-24T09:49:29;55729.31;;;-140.56;46.23
10482;BME280;5288;42.334;23.876;2023-06-24T09:51:57;55701.66;;;-140.56;47.00
10482;BME280;5288;42.334;23.876;2023-06-24T09:54:26;55695.72;;;-140.56;47.58
10482;BME280;5288;42.334;23.876;2023-06-24T09:56:54;55737.22;;;-140.56;45.08
10482;BME280;5288;42.334;23.876;2023-06-24T09:59:25;55713.50;;;-140.56;44.69
10482;BME280;5288;42.334;23.876;2023-06-24T10:01:53;55693.75;;;-140.56;43.18
10482;BME280;5288;42.334;23.876;2023-06-24T10:04:23;55679.91;;;-140.56;42.66
10482;BME280;5288;42.334;23.876;2023-06-24T10:06:51;55662.13;;;-140.56;44.76
10482;BME280;5288;42.334;23.876;2023-06-24T10:09:18;55658.19;;;-140.56;42.29
10482;BME280;5288;42.334;23.876;2023-06-24T10:11:47;55679.91;;;-140.56;42.99
10482;BME280;5288;42.334;23.876;2023-06-24T10:14:14;55701.66;;;-140.56;44.36
10482;BME280;5288;42.334;23.876;2023-06-24T10:16:42;55707.59;;;-140.56;43.08
10482;BME280;5288;42.334;23.876;2023-06-24T10:19:09;55654.22;;;-140.56;40.92
10482;BME280;5288;42.334;23.876;2023-06-24T10:21:49;55693.75;;;-140.56;40.93
10482;BME280;5288;42.334;23.876;2023-06-24T10:24:28;55677.94;;;-140.56;42.02
10482;BME280;5288;42.334;23.876;2023-06-24T10:27:01;55662.13;;;-140.56;41.76
10482;BME280;5288;42.334;23.876;2023-06-24T10:29:32;55666.09;;;-140.56;41.87
10482;BME280;5288;42.334;23.876;2023-06-24T10:32:06;55636.44;;;-140.56;42.01
10482;BME280;5288;42.334;23.876;2023-06-24T10:34:38;55648.31;;;-140.56;40.37
10482;BME280;5288;42.334;23.876;2023-06-24T10:37:14;55666.09;;;-140.56;41.09
10482;BME280;5288;42.334;23.876;2023-06-24T10:39:51;55626.56;;;-140.56;41.45
10482;BME280;5288;42.334;23.876;2023-06-24T10:42:38;55656.22;;;-140.56;39.94
10482;BME280;5288;42.334;23.876;2023-06-24T10:45:15;55638.41;;;-140.56;40.80
10482;BME280;5288;42.334;23.876;2023-06-24T10:47:44;55632.50;;;-140.56;39.56
10482;BME280;5288;42.334;23.876;2023-06-24T10:50:12;55624.59;;;-140.56;39.35
10482;BME280;5288;42.334;23.876;2023-06-24T10:52:42;55626.56;;;-140.56;39.00
10482;BME280;5288;42.334;23.876;2023-06-24T10:55:10;55626.56;;;-140.56;41.45
10482;BME280;5288;42.334;23.876;2023-06-24T10:57:39;55632.50;;;-140.56;41.25
10482;BME280;5288;42.334;23.876;2023-06-24T11:00:07;55640.41;;;-140.56;39.55
10482;BME280;5288;42.334;23.876;2023-06-24T11:02:35;55628.53;;;-140.56;42.27
10482;BME280;5288;42.334;23.876;2023-06-24T11:05:03;55636.44;;;-140.56;39.53
10482;BME280;5288;42.334;23.876;2023-06-24T11:07:32;55628.53;;;-140.56;41.02
10482;BME280;5288;42.334;23.876;2023-06-24T11:10:04;55662.13;;;-140.56;40.34
10482;BME280;5288;42.334;23.876;2023-06-24T11:12:32;55610.75;;;-140.56;39.65
10482;BME280;5288;42.334;23.876;2023-06-24T11:15:02;55596.94;;;-140.56;38.57
10482;BME280;5288;42.334;23.876;2023-06-24T11:17:29;55620.63;;;-140.56;39.78
10482;BME280;5288;42.334;23.876;2023-06-24T11:19:57;55618.66;;;-140.56;41.37
10482;BME280;5288;42.334;23.876;2023-06-24T11:22:26;55614.72;;;-140.56;39.83
10482;BME280;5288;42.334;23.876;2023-06-24T11:24:53;55598.91;;;-140.56;38.76
10482;BME280;5288;42.334;23.876;2023-06-24T11:27:26;55606.81;;;-140.56;38.87
10482;BME280;5288;42.334;23.876;2023-06-24T11:29:54;55608.78;;;-140.56;40.19
10482;BME280;5288;42.334;23.876;2023-06-24T11:32:22;55610.75;;;-140.56;38.11
10482;BME280;5288;42.334;23.876;2023-06-24T11:34:49;55594.94;;;-140.56;39.21
10482;BME280;5288;42.334;23.876;2023-06-24T11:37:17;55594.94;;;-140.56;38.39
10482;BME280;5288;42.334;23.876;2023-06-24T11:39:55;55604.84;;;-140.56;37.86
10482;BME280;5288;42.334;23.876;2023-06-24T11:42:28;55587.06;;;-140.56;37.52
10482;BME280;5288;42.334;23.876;2023-06-24T11:44:59;55602.84;;;-140.56;37.95
10482;BME280;5288;42.334;23.876;2023-06-24T11:47:31;55579.16;;;-140.56;38.58
10482;BME280;5288;42.334;23.876;2023-06-24T11:49:59;55575.19;;;-140.56;37.40
10482;BME280;5288;42.334;23.876;2023-06-24T11:52:32;55583.09;;;-140.56;36.16
10482;BME280;5288;42.334;23.876;2023-06-24T11:55:00;55614.72;;;-140.56;37.29
10482;BME280;5288;42.334;23.876;2023-06-24T11:57:58;55624.59;;;-140.56;38.25
10482;BME280;5288;42.334;23.876;2023-06-24T12:00:29;55561.38;;;-140.56;39.29
10482;BME280;5288;42.334;23.876;2023-06-24T12:02:57;55581.13;;;-140.56;37.12
10482;BME280;5288;42.334;23.876;2023-06-24T12:05:26;55567.28;;;-140.56;37.15
10482;BME280;5288;42.334;23.876;2023-06-24T12:07:55;55583.09;;;-140.56;37.42
10482;BME280;5288;42.334;23.876;2023-06-24T12:10:23;55571.25;;;-140.56;35.49
10482;BME280;5288;42.334;23.876;2023-06-24T12:12:50;55577.16;;;-140.56;35.57
10482;BME280;5288;42.334;23.876;2023-06-24T12:15:19;55547.53;;;-140.56;35.66
10482;BME280;5288;42.334;23.876;2023-06-24T12:17:46;55569.25;;;-140.56;35.18
10482;BME280;5288;42.334;23.876;2023-06-24T12:20:13;55585.06;;;-140.56;36.18
10482;BME280;5288;42.334;23.876;2023-06-24T12:22:41;55591.00;;;-140.56;35.69
10482;BME280;5288;42.334;23.876;2023-06-24T12:25:09;55650.28;;;-140.56;36.39
10482;BME280;5288;42.334;23.876;2023-06-24T12:27:37;55585.06;;;-140.56;37.52
10482;BME280;5288;42.334;23.876;2023-06-24T12:30:06;55567.28;;;-140.56;34.55
10482;BME280;5288;42.334;23.876;2023-06-24T12:32:35;55555.44;;;-140.56;35.36
10482;BME280;5288;42.334;23.876;2023-06-24T12:35:03;55563.34;;;-140.56;34.87
10482;BME280;5288;42.334;23.876;2023-06-24T12:37:31;55551.47;;;-140.56;36.95
10482;BME280;5288;42.334;23.876;2023-06-24T12:39:58;55545.56;;;-140.56;36.57
10482;BME280;5288;42.334;23.876;2023-06-24T12:42:25;55581.13;;;-140.56;35.58
10482;BME280;5288;42.334;23.876;2023-06-24T12:44:53;55569.25;;;-140.56;36.36
10482;BME280;5288;42.334;23.876;2023-06-24T12:47:20;55585.06;;;-140.56;37.39